Time;durP1;ratioP1;P1;durP2;ratioP2;P2;SDS_P1;SDS_P2;PMS_P1;PMS_P2;Temp;Humidity;BMP_temperature;BMP_pressure;BME280_temperature;BME280_humidity;BME280_pressure;Samples;Min_cycle;Max_cycle;Signal;HPM_P1;HPM_P2
2023/08/25 00:00:40;;;;;;;6.82;2.30;;;;;;;22.04;74.85;99275.84;5085844;28;20047;-74
2023/08/25 00:03:06;;;;;;;7.43;2.20;;;;;;;22.07;74.76;99272.34;5085964;28;20036;-74
2023/08/25 00:05:38;;;;;;;6.28;2.25;;;;;;;22.08;74.99;99270.38;5085700;28;20261;-73
2023/08/25 00:08:04;;;;;;;6.07;2.22;;;;;;;22.09;74.86;99260.91;5085992;28;20040;-72
2023/08/25 00:10:29;;;;;;;6.32;2.78;;;;;;;22.11;74.50;99256.59;5084796;28;20028;-74
2023/08/25 00:12:55;;;;;;;6.53;3.53;;;;;;;22.09;74.79;99250.59;5086670;28;20085;-73
2023/08/25 00:15:20;;;;;;;4.82;2.30;;;;;;;22.04;74.81;99248.91;5085572;28;20117;-73
2023/08/25 00:17:46;;;;;;;5.63;2.53;;;;;;;22.03;74.79;99240.91;5084781;28;20496;-74
2023/08/25 00:20:12;;;;;;;6.20;2.42;;;;;;;21.99;75.10;99234.47;5084841;28;20067;-73
2023/08/25 00:22:38;;;;;;;4.80;2.35;;;;;;;22.00;75.19;99247.19;5085669;28;20067;-73
2023/08/25 00:25:04;;;;;;;6.53;3.30;;;;;;;21.89;75.43;99241.34;5085120;28;20036;-73
2023/08/25 00:27:29;;;;;;;9.32;2.75;;;;;;;21.86;75.49;99242.06;5084933;28;20408;-73
2023/08/25 00:29:54;;;;;;;7.77;2.90;;;;;;;21.78;75.69;99236.28;5085117;28;20036;-73
2023/08/25 00:32:20;;;;;;;6.65;2.45;;;;;;;21.78;75.93;99238.25;5085227;28;20032;-72
2023/08/25 00:34:45;;;;;;;6.15;2.45;;;;;;;21.79;75.82;99232.34;5085839;28;21292;-73
2023/08/25 00:37:10;;;;;;;14.30;3.63;;;;;;;21.70;76.11;99226.16;5085121;28;20024;-73
2023/08/25 00:39:36;;;;;;;5.53;2.67;;;;;;;21.68;76.16;99223.72;5085269;28;20805;-75
2023/08/25 00:42:01;;;;;;;7.43;3.55;;;;;;;21.63;76.48;99223.19;5084668;28;20173;-73
2023/08/25 00:44:26;;;;;;;11.73;3.00;;;;;;;21.60;76.59;99223.91;5084749;28;20089;-72
2023/08/25 00:46:52;;;;;;;8.43;2.93;;;;;;;21.57;76.83;99237.31;5085249;28;20822;-74
2023/08/25 00:49:19;;;;;;;7.10;3.13;;;;;;;21.52;77.10;99218.13;5084971;28;20348;-72
2023/08/25 00:51:44;;;;;;;7.22;3.08;;;;;;;21.48;77.42;99211.69;5085813;28;20047;-81
2023/08/25 00:54:10;;;;;;;7.78;2.97;;;;;;;21.48;77.81;99206.13;5088630;28;20083;-81
2023/08/25 00:56:35;;;;;;;10.40;3.05;;;;;;;21.51;77.48;99202.69;5088900;28;20032;-81
2023/08/25 00:59:01;;;;;;;6.55;2.97;;;;;;;21.53;77.11;99208.69;5087969;28;20024;-81
2023/08/25 01:01:27;;;;;;;6.85;3.30;;;;;;;21.54;77.29;99204.72;5089271;28;20468;-80
2023/08/25 01:03:52;;;;;;;6.72;2.17;;;;;;;21.50;77.57;99203.81;5088260;28;20028;-81
2023/08/25 01:06:18;;;;;;;5.10;2.45;;;;;;;21.44;77.63;99199.69;5088276;28;20048;-80
2023/08/25 01:08:43;;;;;;;6.33;3.63;;;;;;;21.48;77.38;99206.13;5088218;28;20034;-81
2023/08/25 01:11:40;;;;;;;5.90;2.70;;;;;;;21.50;77.23;99198.28;5088504;28;20280;-80
2023/08/25 01:14:09;;;;;;;8.20;3.70;;;;;;;21.48;77.41;99206.13;5058814;28;20101;-80
2023/08/25 01:16:45;;;;;;;9.60;3.13;;;;;;;21.48;76.96;99200.59;5088342;28;20382;-80
2023/08/25 01:19:43;;;;;;;7.57;2.72;;;;;;;21.42;77.50;99211.13;5087863;28;20038;-80
2023/08/25 01:22:14;;;;;;;6.53;2.90;;;;;;;21.45;77.64;99209.63;5085035;28;20052;-80
2023/08/25 01:24:42;;;;;;;7.70;2.65;;;;;;;21.41;77.54;99205.94;5087870;28;20032;-79
2023/08/25 01:27:09;;;;;;;9.73;2.53;;;;;;;21.39;77.71;99209.06;5087794;28;20035;-79
2023/08/25 01:29:35;;;;;;;11.48;3.92;;;;;;;21.41;77.59;99206.75;5087720;28;20115;-81
2023/08/25 01:32:00;;;;;;;13.00;3.25;;;;;;;21.41;77.42;99205.94;5087255;28;20085;-80
2023/08/25 01:34:26;;;;;;;6.67;2.97;;;;;;;21.41;77.46;99212.31;5086655;28;20506;-79
2023/08/25 01:37:04;;;;;;;5.60;2.80;;;;;;;21.45;77.06;99204.09;5087382;28;20249;-80
2023/08/25 01:39:31;;;;;;;5.72;2.70;;;;;;;21.44;77.56;99189.41;5087517;28;20078;-80
2023/08/25 01:42:02;;;;;;;5.68;2.95;;;;;;;21.55;76.74;99195.25;5088020;28;20046;-82
2023/08/25 01:44:29;;;;;;;5.05;2.28;;;;;;;21.55;77.04;99195.25;5087194;28;20115;-83
2023/08/25 01:47:06;;;;;;;6.38;3.05;;;;;;;21.65;76.31;99188.41;5087783;28;20485;-79
2023/08/25 01:49:32;;;;;;;10.15;3.33;;;;;;;21.67;76.33;99190.81;5086657;28;20040;-80
2023/08/25 01:51:59;;;;;;;5.78;2.47;;;;;;;21.71;76.30;99191.72;5086464;28;20038;-80
2023/08/25 01:54:24;;;;;;;9.35;3.17;;;;;;;21.70;76.10;99192.88;5086366;28;20039;-82
2023/08/25 01:56:50;;;;;;;6.93;2.65;;;;;;;21.72;76.07;99187.78;5086846;28;20028;-80
2023/08/25 01:59:15;;;;;;;6.30;3.00;;;;;;;21.74;75.83;99187.44;5088086;28;20032;-80
2023/08/25 02:01:40;;;;;;;5.07;2.17;;;;;;;21.79;75.19;99187.97;5086985;28;20248;-73
2023/08/25 02:04:05;;;;;;;5.57;2.57;;;;;;;21.79;75.31;99187.16;5083354;28;20265;-74
2023/08/25 02:06:32;;;;;;;7.68;2.88;;;;;;;21.76;75.36;99182.34;5083340;28;20277;-73
2023/08/25 02:08:57;;;;;;;5.45;2.70;;;;;;;21.75;75.52;99181.53;5083782;28;20393;-73
2023/08/25 02:11:23;;;;;;;7.50;2.75;;;;;;;21.71;75.36;99186.16;5083451;28;20100;-72
2023/08/25 02:13:48;;;;;;;7.47;3.10;;;;;;;21.60;76.06;99182.31;5083355;28;20036;-74
2023/08/25 02:16:13;;;;;;;5.73;2.90;;;;;;;21.53;76.40;99189.28;5083721;28;20032;-76
2023/08/25 02:18:38;;;;;;;6.88;2.63;;;;;;;21.52;76.53;99195.97;5083685;28;20336;-72
2023/08/25 02:21:04;;;;;;;9.70;3.40;;;;;;;21.55;76.59;99186.13;5083200;28;20068;-72
2023/08/25 02:23:29;;;;;;;6.47;3.60;;;;;;;21.58;76.12;99189.00;5082819;28;20036;-73
2023/08/25 02:25:54;;;;;;;8.97;3.50;;;;;;;21.62;76.35;99188.31;5082785;28;20276;-73
2023/08/25 02:28:20;;;;;;;7.13;2.80;;;;;;;21.67;76.02;99180.53;5082403;28;20340;-73
2023/08/25 02:30:45;;;;;;;6.53;2.85;;;;;;;21.62;76.18;99182.75;5083026;28;20280;-73
2023/08/25 02:33:11;;;;;;;7.53;3.13;;;;;;;21.55;76.58;99173.09;5083172;28;20448;-73
2023/08/25 02:35:37;;;;;;;11.13;3.25;;;;;;;21.60;76.76;99174.00;5083506;28;20759;-74
2023/08/25 02:38:04;;;;;;;7.63;3.93;;;;;;;21.53;76.67;99180.13;5082686;28;20127;-73
2023/08/25 02:40:30;;;;;;;8.02;3.35;;;;;;;21.49;76.93;99182.81;5082675;28;20248;-72
2023/08/25 02:42:58;;;;;;;7.18;3.53;;;;;;;21.50;76.97;99170.56;5082466;28;20762;-72
2023/08/25 02:45:24;;;;;;;9.18;3.47;;;;;;;21.48;77.14;99170.09;5082693;28;20057;-72
2023/08/25 02:47:49;;;;;;;7.78;3.28;;;;;;;21.40;76.97;99171.88;5082788;28;20058;-73
2023/08/25 02:50:15;;;;;;;8.95;3.47;;;;;;;21.36;77.10;99157.09;5082932;28;20039;-73
2023/08/25 02:52:40;;;;;;;7.28;4.15;;;;;;;21.25;77.67;99159.59;5082593;28;20020;-73
2023/08/25 02:55:06;;;;;;;7.63;3.50;;;;;;;21.17;77.80;99163.31;5082972;28;20043;-73
2023/08/25 02:57:31;;;;;;;6.68;3.45;;;;;;;21.10;77.75;99156.41;5083251;28;20264;-73
2023/08/25 02:59:56;;;;;;;6.70;3.27;;;;;;;21.08;78.59;99161.47;5083501;28;20457;-73
2023/08/25 03:02:22;;;;;;;10.73;3.60;;;;;;;21.02;78.30;99154.56;5084055;28;20263;-74
2023/08/25 03:04:47;;;;;;;7.20;3.30;;;;;;;21.01;78.51;99155.75;5083395;28;21496;-74
2023/08/25 03:07:12;;;;;;;9.20;4.68;;;;;;;21.05;78.50;99156.63;5086681;28;20501;-73
2023/08/25 03:09:38;;;;;;;8.15;3.30;;;;;;;21.01;78.60;99155.75;5087886;28;20071;-73
2023/08/25 03:12:03;;;;;;;10.23;3.30;;;;;;;20.99;78.77;99158.06;5088313;28;20134;-81
2023/08/25 03:14:29;;;;;;;7.28;3.80;;;;;;;20.97;78.58;99149.28;5090331;28;21494;-81
2023/08/25 03:16:54;;;;;;;8.33;3.80;;;;;;;20.93;78.98;99148.34;5090059;28;20404;-82
2023/08/25 03:19:19;;;;;;;14.70;3.97;;;;;;;20.94;78.88;99142.44;5090565;28;20248;-80
2023/08/25 03:21:44;;;;;;;10.80;3.53;;;;;;;20.87;79.08;99136.69;5089286;28;20036;-80
2023/08/25 03:24:10;;;;;;;8.00;3.28;;;;;;;20.86;78.71;99137.84;5089436;28;20032;-80
2023/08/25 03:26:35;;;;;;;8.70;3.87;;;;;;;20.76;79.11;99137.19;5089566;28;20036;-80
2023/08/25 03:29:00;;;;;;;8.48;3.80;;;;;;;20.71;79.54;99133.84;5089721;28;20966;-79
2023/08/25 03:31:26;;;;;;;11.32;4.10;;;;;;;20.77;79.50;99140.75;5089070;28;20431;-80
2023/08/25 03:33:51;;;;;;;10.47;4.97;;;;;;;20.84;79.28;99140.16;5089719;28;20038;-81
2023/08/25 03:36:16;;;;;;;9.37;4.37;;;;;;;20.77;79.00;99140.75;5089863;28;20260;-80
2023/08/25 03:38:41;;;;;;;7.73;3.77;;;;;;;20.75;79.07;99145.81;5090307;28;20256;-80
2023/08/25 03:41:07;;;;;;;9.98;4.32;;;;;;;20.77;78.95;99141.56;5089951;28;20954;-82
2023/08/25 03:43:35;;;;;;;5.65;3.30;;;;;;;20.75;78.83;99140.28;5088965;28;20024;-80
2023/08/25 03:46:00;;;;;;;8.32;4.80;;;;;;;20.72;79.14;99132.69;5088766;28;20036;-81
2023/08/25 03:48:26;;;;;;;10.48;4.78;;;;;;;20.70;79.17;99135.00;5089916;28;20035;-81
2023/08/25 03:50:51;;;;;;;9.85;4.25;;;;;;;20.70;78.88;99127.50;5089624;28;20028;-81
2023/08/25 03:53:16;;;;;;;7.40;4.47;;;;;;;20.71;78.80;99126.34;5089279;28;20035;-79
2023/08/25 03:55:42;;;;;;;7.73;4.10;;;;;;;20.74;78.65;99120.13;5088406;28;20815;-80
2023/08/25 03:58:07;;;;;;;8.20;3.80;;;;;;;20.71;78.67;99120.00;5089211;28;20032;-81
2023/08/25 04:00:32;;;;;;;7.90;4.07;;;;;;;20.71;78.20;99114.44;5088771;28;20093;-80
2023/08/25 04:02:57;;;;;;;11.35;6.55;;;;;;;20.69;78.58;99122.31;5089754;28;20253;-79
2023/08/25 04:05:23;;;;;;;11.23;5.63;;;;;;;20.63;78.45;99119.78;5088244;28;20122;-79
2023/08/25 04:07:49;;;;;;;8.65;4.88;;;;;;;20.57;79.02;99123.94;5089120;28;20281;-80
2023/08/25 04:10:14;;;;;;;13.55;4.63;;;;;;;20.53;78.85;99120.25;5089155;28;20040;-77
2023/08/25 04:12:39;;;;;;;6.72;4.10;;;;;;;20.49;79.43;99117.38;5088900;28;20040;-82
2023/08/25 04:15:05;;;;;;;6.38;3.92;;;;;;;20.54;79.28;99116.34;5088198;28;20028;-80
2023/08/25 04:17:34;;;;;;;7.32;3.90;;;;;;;20.58;78.98;99122.00;5087478;28;20602;-81
2023/08/25 04:20:00;;;;;;;7.50;4.47;;;;;;;20.61;78.89;99118.50;5088391;28;20177;-80
2023/08/25 04:22:25;;;;;;;8.05;4.75;;;;;;;20.57;78.88;99123.94;5088518;28;20123;-80
2023/08/25 04:24:51;;;;;;;10.07;4.53;;;;;;;20.60;79.14;99131.56;5086394;28;20173;-79
2023/08/25 04:27:16;;;;;;;12.82;4.28;;;;;;;20.56;78.92;99124.31;5088746;28;20572;-80
2023/08/25 04:29:41;;;;;;;7.25;3.83;;;;;;;20.50;78.96;99118.19;5088392;28;20044;-80
2023/08/25 04:32:07;;;;;;;12.00;4.47;;;;;;;20.41;79.63;99124.66;5087450;28;20039;-80
2023/08/25 04:34:32;;;;;;;9.70;4.87;;;;;;;20.46;79.41;99120.06;5085027;28;20268;-80
2023/08/25 04:36:57;;;;;;;6.80;4.72;;;;;;;20.49;79.45;99124.88;5087363;28;20261;-79
2023/08/25 04:39:23;;;;;;;12.45;4.68;;;;;;;20.45;79.37;99123.97;5087966;28;20397;-81
2023/08/25 04:41:48;;;;;;;8.02;4.20;;;;;;;20.49;79.31;99127.66;5089087;28;20040;-79
2023/08/25 04:44:15;;;;;;;9.07;4.43;;;;;;;20.50;79.14;99123.75;5087622;28;20608;-81
2023/08/25 04:46:40;;;;;;;5.72;3.55;;;;;;;20.51;79.11;99122.56;5085365;28;20351;-80
2023/08/25 04:49:05;;;;;;;10.70;4.43;;;;;;;20.50;79.21;99120.97;5085578;28;20099;-80
2023/08/25 04:51:31;;;;;;;6.82;3.70;;;;;;;20.49;79.47;99120.16;5086009;28;20043;-82
2023/08/25 04:53:56;;;;;;;12.75;5.72;;;;;;;20.50;79.40;99109.91;5087475;28;20036;-81
2023/08/25 04:56:21;;;;;;;9.15;5.03;;;;;;;20.48;79.66;99117.75;5087841;28;20036;-82
2023/08/25 04:58:47;;;;;;;9.70;5.57;;;;;;;20.50;79.79;99121.75;5088308;28;20039;-81
2023/08/25 05:01:12;;;;;;;12.13;6.20;;;;;;;20.52;80.21;99130.50;5088320;28;20366;-80
2023/08/25 05:03:38;;;;;;;9.53;5.23;;;;;;;20.49;80.31;99128.47;5089103;28;20047;-80
2023/08/25 05:06:03;;;;;;;7.90;4.30;;;;;;;20.52;80.46;99124.19;5088512;28;20276;-81
2023/08/25 05:08:28;;;;;;;9.35;5.13;;;;;;;20.49;80.51;99131.22;5088638;28;20039;-81
2023/08/25 05:10:54;;;;;;;9.17;4.03;;;;;;;20.51;80.67;99119.81;5088504;28;20032;-81
2023/08/25 05:13:19;;;;;;;14.57;6.15;;;;;;;20.56;80.63;99130.66;5089908;28;20280;-80
2023/08/25 05:15:44;;;;;;;14.70;5.83;;;;;;;20.62;80.38;99126.50;5087945;28;20040;-81
2023/08/25 05:18:09;;;;;;;15.63;5.37;;;;;;;20.65;80.20;99125.78;5088358;28;20264;-80
2023/08/25 05:20:35;;;;;;;8.17;5.30;;;;;;;20.68;80.05;99129.00;5088723;28;20124;-80
2023/08/25 05:23:00;;;;;;;9.27;4.30;;;;;;;20.65;80.39;99125.78;5087947;28;20279;-81
2023/08/25 05:25:25;;;;;;;10.37;5.13;;;;;;;20.69;80.32;99123.13;5087518;28;20032;-80
2023/08/25 05:27:51;;;;;;;11.27;4.67;;;;;;;20.71;80.50;99128.28;5087070;28;20284;-81
2023/08/25 05:30:16;;;;;;;9.80;3.97;;;;;;;20.71;80.60;99131.06;5086997;28;20285;-81
2023/08/25 05:32:41;;;;;;;10.50;4.10;;;;;;;20.79;80.62;99130.13;5088055;28;20288;-81
2023/08/25 05:35:07;;;;;;;12.57;5.38;;;;;;;20.82;80.79;99126.66;5087763;28;20024;-79
2023/08/25 05:37:34;;;;;;;10.25;4.00;;;;;;;20.85;80.46;99123.19;5087835;28;20039;-79
2023/08/25 05:39:59;;;;;;;10.65;5.55;;;;;;;20.90;80.75;99129.63;5086911;28;20570;-80
2023/08/25 05:42:28;;;;;;;10.82;5.28;;;;;;;20.92;80.67;99121.78;5086694;28;20032;-80
2023/08/25 05:44:54;;;;;;;15.48;5.03;;;;;;;20.93;80.71;99115.09;5086626;28;20043;-81
2023/08/25 05:47:20;;;;;;;29.65;5.00;;;;;;;20.93;80.59;99115.09;5086604;28;20036;-80
2023/08/25 05:49:45;;;;;;;11.27;5.13;;;;;;;20.99;80.44;99116.50;5087222;28;20040;-81
2023/08/25 05:52:10;;;;;;;9.23;4.50;;;;;;;21.02;80.01;99126.06;5086485;28;20443;-80
2023/08/25 05:54:35;;;;;;;8.77;3.97;;;;;;;21.03;80.29;99117.38;5083369;28;20264;-82
2023/08/25 05:57:01;;;;;;;7.33;4.23;;;;;;;21.01;80.57;99119.72;5086797;28;20722;-81
2023/08/25 05:59:26;;;;;;;12.10;5.03;;;;;;;21.06;80.46;99119.47;5086748;28;20267;-81
2023/08/25 06:01:51;;;;;;;9.37;4.67;;;;;;;21.09;80.33;99115.19;5086617;28;20264;-81
2023/08/25 06:04:16;;;;;;;9.43;4.10;;;;;;;21.15;80.18;99115.75;5085952;28;20253;-81
2023/08/25 06:06:42;;;;;;;16.20;4.80;;;;;;;21.19;80.09;99111.13;5086384;28;20277;-80
2023/08/25 06:09:08;;;;;;;8.13;4.15;;;;;;;21.17;80.11;99108.69;5085515;28;20031;-81
2023/08/25 06:11:33;;;;;;;11.23;3.58;;;;;;;21.18;80.36;99113.06;5087019;28;20028;-82
2023/08/25 06:13:59;;;;;;;7.45;4.10;;;;;;;21.20;79.86;99101.63;5085391;28;20104;-80
2023/08/25 06:16:26;;;;;;;6.13;3.83;;;;;;;21.25;79.88;99098.63;5086950;28;20040;-80
2023/08/25 06:18:51;;;;;;;6.45;3.85;;;;;;;21.27;79.85;99085.22;5086971;28;20253;-81
2023/08/25 06:21:17;;;;;;;7.60;4.30;;;;;;;21.30;79.70;99090.03;5086300;28;20023;-81
2023/08/25 06:23:42;;;;;;;9.98;3.53;;;;;;;21.28;80.02;99070.19;5086669;28;20637;-80
2023/08/25 06:26:07;;;;;;;12.13;3.77;;;;;;;21.34;79.57;99071.53;5086082;28;20038;-80
2023/08/25 06:28:33;;;;;;;9.87;4.23;;;;;;;21.40;79.78;99082.38;5087082;28;20253;-80
2023/08/25 06:30:59;;;;;;;11.27;4.88;;;;;;;21.34;79.88;99085.38;5086070;28;20284;-81
2023/08/25 06:33:29;;;;;;;8.73;4.00;;;;;;;21.33;80.11;99072.72;5086248;28;20051;-81
2023/08/25 06:35:54;;;;;;;13.85;5.20;;;;;;;21.39;79.83;99062.16;5086637;28;20107;-81
2023/08/25 06:38:20;;;;;;;10.80;3.75;;;;;;;21.46;79.67;99064.28;5085193;28;20186;-81
2023/08/25 06:40:47;;;;;;;10.20;3.60;;;;;;;21.51;79.21;99069.59;5082712;28;20036;-80
2023/08/25 06:43:12;;;;;;;7.18;3.35;;;;;;;21.56;79.10;99074.84;5084830;28;20285;-81
2023/08/25 06:45:38;;;;;;;7.35;3.63;;;;;;;21.60;78.92;99069.41;5086660;28;20058;-82
2023/08/25 06:48:04;;;;;;;6.25;3.75;;;;;;;21.61;78.78;99075.75;5088026;28;20028;-80
2023/08/25 06:50:30;;;;;;;5.90;3.15;;;;;;;21.59;79.09;99067.81;5084904;28;20028;-77
2023/08/25 06:52:55;;;;;;;15.05;4.38;;;;;;;21.60;79.29;99077.72;5085572;28;20024;-81
2023/08/25 06:55:22;;;;;;;14.23;3.92;;;;;;;21.64;79.49;99092.47;5085577;28;20182;-81
2023/08/25 06:57:48;;;;;;;10.77;3.80;;;;;;;21.64;79.25;99091.69;5083043;28;20056;-82
2023/08/25 07:00:14;;;;;;;6.65;3.28;;;;;;;21.70;79.32;99096.59;5083647;28;20105;-80
2023/08/25 07:02:43;;;;;;;9.93;4.47;;;;;;;21.84;79.34;99105.69;5083132;28;20039;-81
2023/08/25 07:05:09;;;;;;;11.15;3.35;;;;;;;21.92;78.95;99108.28;5082881;28;20347;-81
2023/08/25 07:07:36;;;;;;;10.07;3.97;;;;;;;21.98;78.67;99125.47;5083105;28;20056;-81
2023/08/25 07:10:01;;;;;;;7.95;3.65;;;;;;;22.01;78.18;99154.44;5082912;28;20040;-82
2023/08/25 07:12:27;;;;;;;7.38;4.30;;;;;;;21.99;78.02;99170.66;5082513;28;20032;-86
2023/08/25 07:14:53;;;;;;;9.98;3.85;;;;;;;21.97;77.89;99126.63;5083142;28;20031;-85
2023/08/25 07:17:18;;;;;;;11.98;3.78;;;;;;;21.98;78.34;99088.59;5084522;28;20036;-83
2023/08/25 07:19:43;;;;;;;11.10;3.97;;;;;;;21.92;79.89;99079.75;5083799;28;20350;-81
2023/08/25 07:22:09;;;;;;;11.52;4.70;;;;;;;21.90;80.29;99093.16;5086002;28;20359;-85
2023/08/25 07:24:34;;;;;;;13.07;5.03;;;;;;;21.67;81.87;99100.09;5089008;28;20063;-81
2023/08/25 07:27:00;;;;;;;12.03;4.53;;;;;;;21.73;81.42;99072.91;5088061;28;20626;-82
2023/08/25 07:29:25;;;;;;;9.30;4.38;;;;;;;21.96;81.47;99046.53;5087371;28;20280;-82
2023/08/25 07:31:52;;;;;;;12.25;5.05;;;;;;;22.06;81.18;99014.66;5087048;28;20024;-81
2023/08/25 07:34:17;;;;;;;9.52;4.22;;;;;;;22.08;81.33;99049.19;5081941;28;20033;-81
2023/08/25 07:36:43;;;;;;;8.93;4.90;;;;;;;22.13;81.63;99078.66;5082467;28;20024;-81
2023/08/25 07:39:08;;;;;;;10.75;5.95;;;;;;;22.09;80.77;99077.75;5082095;28;20260;-81
2023/08/25 07:41:33;;;;;;;9.25;5.78;;;;;;;22.01;80.93;99088.66;5082126;28;20032;-81
2023/08/25 07:43:59;;;;;;;7.95;3.88;;;;;;;21.93;81.32;99103.53;5081597;28;20051;-82
2023/08/25 07:46:24;;;;;;;12.45;5.15;;;;;;;21.93;81.51;99131.28;5082850;28;20129;-81
2023/08/25 07:48:50;;;;;;;10.45;5.78;;;;;;;21.89;81.43;99172.00;5082434;28;20134;-81
2023/08/25 07:51:16;;;;;;;13.85;5.40;;;;;;;21.84;82.34;99225.78;5081317;28;20118;-81
2023/08/25 07:53:41;;;;;;;12.88;5.50;;;;;;;21.80;83.18;99227.63;5085490;28;20810;-75
2023/08/25 07:56:06;;;;;;;9.03;5.17;;;;;;;21.70;83.71;99210.31;5085632;28;20027;-74
2023/08/25 07:58:32;;;;;;;10.70;5.68;;;;;;;21.68;83.47;99192.44;5085585;28;20271;-75
2023/08/25 08:00:57;;;;;;;16.70;7.47;;;;;;;21.65;84.38;99198.69;5085536;28;20071;-74
2023/08/25 08:03:22;;;;;;;15.45;6.82;;;;;;;21.61;84.58;99186.69;5085161;28;20249;-74
2023/08/25 08:05:48;;;;;;;12.33;5.93;;;;;;;21.64;84.38;99159.03;5085042;28;20191;-74
2023/08/25 08:08:13;;;;;;;13.57;6.35;;;;;;;21.58;84.87;99150.19;5084251;28;20039;-76
2023/08/25 08:10:39;;;;;;;15.93;6.72;;;;;;;21.58;85.43;99183.44;5085214;28;20115;-74
2023/08/25 08:13:04;;;;;;;13.18;6.75;;;;;;;21.60;85.02;99235.00;5085141;28;20047;-75
2023/08/25 08:15:32;;;;;;;8.20;5.88;;;;;;;21.58;85.55;99250.00;5084712;28;20480;-74
2023/08/25 08:18:01;;;;;;;14.88;5.93;;;;;;;21.54;86.19;99246.31;5084929;28;20115;-75
2023/08/25 08:20:27;;;;;;;11.27;6.22;;;;;;;21.53;85.78;99225.31;5085239;28;20485;-75
2023/08/25 08:22:52;;;;;;;11.70;6.38;;;;;;;21.50;86.06;99241.84;5084921;28;20024;-74
2023/08/25 08:25:19;;;;;;;14.70;7.03;;;;;;;21.49;86.18;99282.63;5084826;28;20511;-74
2023/08/25 08:27:45;;;;;;;12.68;6.10;;;;;;;21.43;86.36;99240.47;5085063;28;20040;-74
2023/08/25 08:30:11;;;;;;;8.93;5.63;;;;;;;21.31;87.13;99185.91;5084574;28;20039;-74
2023/08/25 08:32:37;;;;;;;1999.90;999.90;;;;;;;21.22;87.75;99165.81;5085168;28;20043;-74
2023/08/25 08:35:09;;;;;;;1542.05;999.90;;;;;;;21.25;87.45;99145.72;5084114;28;20044;-74
2023/08/25 08:37:35;;;;;;;1248.10;970.28;;;;;;;21.18;87.76;99123.34;5084741;28;20032;-74
2023/08/25 08:40:04;;;;;;;1590.13;999.90;;;;;;;21.11;88.05;99143.34;5084614;28;20120;-74
2023/08/25 08:42:32;;;;;;;1652.32;999.90;;;;;;;20.98;88.99;99150.88;5084764;28;20040;-74
2023/08/25 08:45:06;;;;;;;1999.90;999.90;;;;;;;20.97;88.96;99129.91;5084018;28;20032;-74
2023/08/25 08:47:32;;;;;;;1999.90;999.90;;;;;;;20.99;88.82;99133.13;5085149;28;20122;-74
2023/08/25 08:49:59;;;;;;;1937.63;999.90;;;;;;;20.99;88.62;99127.59;5084448;28;20177;-74
2023/08/25 08:52:25;;;;;;;1999.90;999.90;;;;;;;20.92;89.27;99135.63;5084279;28;20120;-74
2023/08/25 08:54:51;;;;;;;1999.90;999.90;;;;;;;20.94;89.02;99136.91;5084144;28;20028;-74
2023/08/25 08:57:17;;;;;;;1999.90;999.90;;;;;;;20.92;88.99;99149.50;5084490;28;20039;-74
2023/08/25 08:59:43;;;;;;;1999.90;999.90;;;;;;;20.93;89.05;99151.13;5084515;28;20045;-74
2023/08/25 09:02:13;;;;;;;1999.90;999.90;;;;;;;21.03;88.77;99167.25;5084423;28;20141;-81
2023/08/25 09:04:40;;;;;;;1999.90;999.90;;;;;;;21.05;88.54;99198.19;5083889;28;20028;-81
2023/08/25 09:07:07;;;;;;;1999.90;999.90;;;;;;;20.94;89.37;99156.31;5084488;28;20056;-81
2023/08/25 09:09:32;;;;;;;1999.90;999.90;;;;;;;20.85;89.88;99136.22;5084891;28;20046;-81
2023/08/25 09:11:58;;;;;;;1999.90;999.90;;;;;;;20.84;90.23;99124.34;5084682;28;20032;-81
2023/08/25 09:14:27;;;;;;;1988.82;999.90;;;;;;;20.85;90.16;99117.66;5084375;28;20050;-81
2023/08/25 09:16:56;;;;;;;1916.95;999.90;;;;;;;20.80;90.53;99095.75;5084259;28;20066;-81
2023/08/25 09:19:22;;;;;;;1934.28;999.90;;;;;;;20.75;91.33;99104.28;5084168;28;20043;-81
2023/08/25 09:21:48;;;;;;;1603.05;999.90;;;;;;;20.80;91.03;99111.56;5084827;28;20036;-83
2023/08/25 09:24:21;;;;;;;1341.53;999.90;;;;;;;20.83;90.75;99122.72;5084022;28;20044;-79
2023/08/25 09:26:48;;;;;;;1379.85;999.90;;;;;;;20.91;90.29;99134.03;5084519;28;20043;-82
2023/08/25 09:29:13;;;;;;;1563.07;999.90;;;;;;;20.94;89.90;99155.50;5084251;28;20039;-80
2023/08/25 09:31:39;;;;;;;1303.47;999.90;;;;;;;20.96;89.25;99142.09;5084458;28;20032;-83
2023/08/25 09:34:07;;;;;;;1739.00;999.90;;;;;;;20.97;89.91;99116.06;5083851;28;20540;-80
2023/08/25 09:36:32;;;;;;;1485.45;999.90;;;;;;;21.01;89.90;99100.34;5084513;28;20040;-81
2023/08/25 09:38:58;;;;;;;1316.15;999.90;;;;;;;21.08;89.15;99105.25;5084002;28;20043;-82
2023/08/25 09:41:25;;;;;;;1450.68;999.90;;;;;;;21.16;88.57;99151.41;5084057;28;20058;-82
2023/08/25 09:43:56;;;;;;;1538.47;999.90;;;;;;;21.18;87.68;99198.97;5083929;28;20119;-80
2023/08/25 09:46:42;;;;;;;1280.00;999.90;;;;;;;21.21;88.45;99203.03;5084421;28;20035;-81
2023/08/25 09:49:10;;;;;;;1444.82;999.90;;;;;;;21.19;89.09;99174.84;5084404;28;20414;-81
2023/08/25 09:51:39;;;;;;;1103.45;994.10;;;;;;;21.29;89.15;99182.66;5083458;28;20024;-82
2023/08/25 09:54:12;;;;;;;1363.07;999.90;;;;;;;21.42;88.55;99146.56;5083522;28;20123;-81
2023/08/25 09:56:39;;;;;;;1165.68;999.90;;;;;;;21.49;88.38;99096.06;5084045;28;20114;-80
2023/08/25 09:59:05;;;;;;;1157.18;999.90;;;;;;;21.48;88.85;99092.47;5083484;28;20216;-81
2023/08/25 10:01:35;;;;;;;1294.22;999.90;;;;;;;21.55;88.80;99087.13;5083569;28;20133;-80
2023/08/25 10:04:04;;;;;;;1385.60;999.90;;;;;;;21.63;88.25;99128.91;5082351;28;20032;-74
2023/08/25 10:06:31;;;;;;;1547.10;999.90;;;;;;;21.61;88.39;99200.53;5082725;28;20048;-74
2023/08/25 10:08:58;;;;;;;1424.22;999.90;;;;;;;21.54;88.76;99220.59;5082952;28;20036;-74
2023/08/25 10:11:27;;;;;;;1242.47;999.90;;;;;;;21.55;88.49;99172.28;5082472;28;20254;-74
2023/08/25 10:13:54;;;;;;;1138.47;999.90;;;;;;;21.58;88.37;99171.56;5082464;28;20178;-74
2023/08/25 10:16:20;;;;;;;1214.03;999.90;;;;;;;21.60;88.50;99212.81;5082536;28;20043;-74
2023/08/25 10:18:47;;;;;;;1282.38;999.90;;;;;;;21.49;88.76;99249.34;5082731;28;20036;-74
2023/08/25 10:21:14;;;;;;;1150.03;999.90;;;;;;;21.51;88.70;99269.22;5082745;28;21206;-75
2023/08/25 10:23:41;;;;;;;1191.65;999.90;;;;;;;21.54;88.47;99238.00;5082566;28;20433;-74
2023/08/25 10:26:08;;;;;;;1424.13;999.90;;;;;;;21.51;88.44;99241.50;5082729;28;20032;-75
2023/08/25 10:28:34;;;;;;;1120.75;999.90;;;;;;;21.53;88.34;99286.31;5083043;28;20147;-74
2023/08/25 10:31:00;;;;;;;1318.57;999.90;;;;;;;21.52;88.43;99245.09;5082299;28;20040;-74
2023/08/25 10:33:25;;;;;;;1582.57;999.90;;;;;;;21.22;89.31;99240.66;5082133;28;21126;-74
2023/08/25 10:35:54;;;;;;;1346.13;999.90;;;;;;;21.09;89.36;99287.78;5082596;28;20043;-75
2023/08/25 10:38:19;;;;;;;1431.45;999.90;;;;;;;21.02;88.74;99311.69;5082705;28;20305;-74
2023/08/25 10:40:55;;;;;;;1455.83;999.90;;;;;;;21.00;89.58;99303.72;5082745;28;20081;-74
2023/08/25 10:43:30;;;;;;;1096.80;995.42;;;;;;;21.02;90.50;99257.09;5082258;28;20020;-75
2023/08/25 10:45:55;;;;;;;1122.88;999.90;;;;;;;21.07;89.84;99236.66;5082506;28;20158;-74
2023/08/25 10:48:24;;;;;;;1165.82;999.90;;;;;;;21.15;89.33;99237.66;5082204;28;20773;-74
2023/08/25 10:50:52;;;;;;;1123.38;999.90;;;;;;;21.17;88.97;99224.28;5082103;28;20070;-74
2023/08/25 10:53:37;;;;;;;1162.72;999.90;;;;;;;21.08;88.97;99227.97;5082484;28;20455;-74
2023/08/25 10:56:23;;;;;;;1198.93;999.90;;;;;;;21.05;88.97;99200.16;5082324;28;20028;-74
2023/08/25 10:59:02;;;;;;;1173.88;999.90;;;;;;;21.09;88.33;99251.75;5082508;28;20421;-74
2023/08/25 11:01:53;;;;;;;1287.72;999.90;;;;;;;20.98;87.88;99306.84;5081059;28;20611;-75
2023/08/25 11:04:29;;;;;;;1558.97;999.90;;;;;;;20.68;87.33;99336.69;5081996;28;20038;-74
2023/08/25 11:06:58;;;;;;;1470.05;999.90;;;;;;;20.57;88.17;99259.59;5082068;28;20060;-75
2023/08/25 11:09:24;;;;;;;1108.65;999.90;;;;;;;20.70;88.24;99229.16;5082826;28;20032;-74
2023/08/25 11:11:58;;;;;;;1389.60;999.90;;;;;;;20.72;87.12;99247.03;5082332;28;20038;-82
2023/08/25 11:14:28;;;;;;;1159.20;999.90;;;;;;;20.69;87.07;99256.03;5082634;28;20089;-80
2023/08/25 11:16:53;;;;;;;1421.20;999.90;;;;;;;20.65;87.60;99253.16;5082812;28;20036;-82
2023/08/25 11:19:19;;;;;;;1481.97;999.90;;;;;;;20.63;86.57;99229.72;5082488;28;20504;-81